Flight Track Log - Related Links

Times and Time Zones

All times are in EDT time to prevent confusion due to time zone crossing. See the N6345B flight status page for this flight to view local times or setup timezone preferences in your user account.

Time Position Orientation Groundspeed Altitude Reporting Facility
EDT Latitude Longitude Course Direction KTS MPH feet Rate Location/Type
Fri 02:33:59 PM 28.1000 -80.6333 60° Northeast 58 67 500  Level Orlando TRACON
Fri 02:35:30 PM 28.1167 -80.6000 60° Northeast 70 81 1,500 596 Climbing Orlando TRACON
Fri 02:36:30 PM 28.1167 -80.5833 90° East 79 91 2,000 600 Climbing Orlando TRACON
Fri 02:37:30 PM 28.1167 -80.5667 90° East 73 84 2,700 571 Climbing Orlando TRACON
Fri 02:38:36 PM 28.1333 -80.5667 360° North 99 114 3,200 524 Climbing Orlando TRACON
Fri 02:39:36 PM 28.1500 -80.5833 319° Northwest 95 109 3,800 595 Climbing Orlando TRACON
Fri 02:40:37 PM 28.1667 -80.6000 319° Northwest 95 109 4,400 496 Climbing Orlando TRACON
Fri 02:41:37 PM 28.1833 -80.6333 300° West 96 110 4,800 300 Climbing Orlando TRACON
Fri 02:42:37 PM 28.2000 -80.6500 319° Northwest 101 116 5,000 100 Climbing Orlando TRACON
Fri 02:43:37 PM 28.2333 -80.6667 336° Northwest 118 136 5,000  Level Orlando TRACON
Fri 02:44:37 PM 28.2500 -80.7000 300° West 113 130 5,000  Level Orlando TRACON
Fri 02:45:43 PM 28.2833 -80.7167 336° Northwest 116 133 5,000  Level Orlando TRACON
Fri 02:46:44 PM 28.3167 -80.7167 360° North 119 137 5,000  Level Orlando TRACON
Fri 02:47:44 PM 28.3500 -80.7333 336° Northwest 117 135 5,000  Level Orlando TRACON
Fri 02:48:44 PM 28.3833 -80.7500 336° Northwest 117 135 5,000  Level Orlando TRACON
Fri 02:49:38 PM 28.4167 -80.7500 360° North 118 136 5,000  Level Orlando TRACON
Fri 02:50:39 PM 28.4333 -80.7667 319° Northwest 117 135 5,000  Level Orlando TRACON
Fri 02:51:45 PM 28.4667 -80.7833 336° Northwest 111 128 5,000  Level Orlando TRACON
Fri 02:52:39 PM 28.5000 -80.7833 360° North 113 130 5,000  Level Orlando TRACON
Fri 02:53:46 PM 28.5333 -80.8000 336° Northwest 113 130 5,000  Level Orlando TRACON
Fri 02:54:46 PM 28.5667 -80.8167 336° Northwest 111 128 5,000  Level Orlando TRACON
Fri 02:55:46 PM 28.6000 -80.8333 336° Northwest 111 128 5,000  Level Orlando TRACON
Fri 02:56:46 PM 28.6167 -80.8333 360° North 111 128 5,000  Level Orlando TRACON
Fri 02:57:52 PM 28.6500 -80.8500 336° Northwest 116 133 5,000  Level Orlando TRACON
Fri 02:58:53 PM 28.6833 -80.8667 336° Northwest 112 129 5,000  Level Orlando TRACON
Fri 02:59:53 PM 28.7167 -80.8833 336° Northwest 112 129 5,000  Level Orlando TRACON
Fri 03:00:41 PM 28.7333 -80.8833 360° North 115 132 5,000  Level Orlando TRACON
Fri 03:02:17 PM 28.7836 -80.9075 337° Northwest 114 131 5,000  Level Jacksonville Center
Fri 03:03:18 PM 28.8150 -80.9186 343° North 113 130 5,000  Level Jacksonville Center
Fri 03:04:25 PM 28.8467 -80.9322 339° North 110 127 5,000  Level Jacksonville Center
Fri 03:05:32 PM 28.8781 -80.9436 342° North 108 124 5,000  Level Jacksonville Center
Fri 03:06:33 PM 28.9075 -80.9572 338° Northwest 108 124 5,000  Level Jacksonville Center
Fri 03:07:34 PM 28.9369 -80.9683 342° North 107 123 5,000  Level Jacksonville Center
Fri 03:08:23 PM 28.9581 -80.9822 330° Northwest 108 124 5,000 -115 Level Jacksonville Center
Fri 03:09:18 PM 28.9792 -81.0033 319° Northwest 109 125 4,800 -448 Descending Jacksonville Center
Fri 03:10:37 PM 29.0089 -81.0358 316° Northwest 118 136 4,000 -729 Descending Jacksonville Center
Fri 03:11:38 PM 29.0342 -81.0569 324° Northwest 124 143 3,100 -1,131 Descending Jacksonville Center
Fri 03:12:39 PM 29.0656 -81.0658 346° North 118 136 1,700 -730 Descending Jacksonville Center
Fri 03:13:33 PM 29.0661 -81.0919 271° West 105 121 1,700 -50 Level Jacksonville Center
Fri 03:14:40 PM 29.0561 -81.1347 255° West 118 136 1,600 -47 Descending Jacksonville Center
Fri 03:15:41 PM 29.0544 -81.1706 267° West 108 124 1,600  Level Jacksonville Center
Fri 03:16:42 PM 29.0633 -81.1964 291° West 107 123 1,600  Level Jacksonville Center
Fri 03:17:43 PM 29.0906 -81.2103 336° Northwest 105 121 1,600  Level Jacksonville Center
Fri 03:18:44 PM 29.1136 -81.2075 North 99 114 1,600  Level Jacksonville Center
Fri 03:19:45 PM 29.1319 -81.1786 54° Northeast 106 122 1,600 -98 Level Jacksonville Center
Fri 03:20:46 PM 29.1442 -81.1500 64° Northeast 101 116 1,400 -344 Descending Jacksonville Center
Fri 03:21:47 PM 29.1542 -81.1236 67° East 85 98 900 -446 Descending Jacksonville Center
Fri 03:22:47 PM 29.1622 -81.0997 69° East 77 89 500 -400 Descending Jacksonville Center
Fri 03:24:00 PM 29.1937 -81.0925 11° North  Level FlightAware Approximate
Fri 03:31:00 PM 29.2220 -81.0721 161° South  Level FlightAware Approximate
Fri 03:32:00 PM 29.1970 -81.0621 161° South  Level FlightAware Approximate
Fri 03:33:00 PM 29.1799 -81.0581 161° South  Level Estimated

Login

Don't have an account? Register now (free) for customized features, flight alerts, and more!